Time;durP1;ratioP1;P1;durP2;ratioP2;P2;SDS_P1;SDS_P2;PMS_P1;PMS_P2;Temp;Humidity;BMP_temperature;BMP_pressure;BME280_temperature;BME280_humidity;BME280_pressure;Samples;Min_cycle;Max_cycle;Signal;HPM_P1;HPM_P2
2021/08/09 00:00:50;;;;;;;7.80;3.07;;;;;;;;;;4933719;29;20237;-82
2021/08/09 00:03:18;;;;;;;11.33;3.60;;;;;;;;;;4934444;29;20211;-82
2021/08/09 00:05:46;;;;;;;6.23;3.10;;;;;;;;;;4936204;29;20294;-82
2021/08/09 00:08:13;;;;;;;7.07;3.30;;;;;;;;;;4932333;29;20208;-82
2021/08/09 00:10:40;;;;;;;5.63;3.07;;;;;;;;;;4932096;29;20313;-82
2021/08/09 00:13:08;;;;;;;8.10;3.23;;;;;;;;;;4935059;29;20223;-80
2021/08/09 00:15:36;;;;;;;5.60;3.07;;;;;;;;;;4930196;29;20210;-82
2021/08/09 00:18:03;;;;;;;7.80;3.50;;;;;;;;;;4940443;29;20239;-83
2021/08/09 00:20:31;;;;;;;8.13;3.13;;;;;;;;;;4942552;29;20420;-83
2021/08/09 00:22:58;;;;;;;6.87;3.33;;;;;;;;;;4940013;29;20232;-81
2021/08/09 00:25:25;;;;;;;9.10;3.03;;;;;;;;;;4929643;29;20213;-81
2021/08/09 00:27:52;;;;;;;6.37;3.30;;;;;;;;;;4936126;29;20215;-82
2021/08/09 00:30:19;;;;;;;11.90;3.53;;;;;;;;;;4936744;29;20279;-80
2021/08/09 00:32:48;;;;;;;9.33;3.70;;;;;;;;;;4937717;29;20223;-82
2021/08/09 00:35:15;;;;;;;9.10;3.40;;;;;;;;;;4940806;29;20282;-81
2021/08/09 00:37:42;;;;;;;10.07;3.50;;;;;;;;;;4938713;29;20290;-82
2021/08/09 00:40:10;;;;;;;4.90;3.30;;;;;;;;;;4938375;29;20217;-82
2021/08/09 00:42:37;;;;;;;7.30;2.93;;;;;;;;;;4938608;28;20322;-81
2021/08/09 00:45:05;;;;;;;7.10;3.57;;;;;;;;;;4936951;29;20213;-81
2021/08/09 00:47:32;;;;;;;9.83;3.30;;;;;;;;;;4943011;29;20221;-81
2021/08/09 00:50:01;;;;;;;10.80;3.13;;;;;;;;;;4936526;29;20211;-81
2021/08/09 00:52:28;;;;;;;5.13;3.13;;;;;;;;;;4936553;29;20270;-82
2021/08/09 00:54:55;;;;;;;7.87;2.87;;;;;;;;;;4934414;29;20210;-83
2021/08/09 00:57:22;;;;;;;11.87;3.57;;;;;;;;;;4933019;29;20231;-82
2021/08/09 00:59:49;;;;;;;9.67;2.97;;;;;;;;;;4936510;29;20263;-83
2021/08/09 01:02:17;;;;;;;6.73;3.27;;;;;;;;;;4934989;29;20227;-82
2021/08/09 01:04:44;;;;;;;10.90;3.07;;;;;;;;;;4936464;29;20328;-83
2021/08/09 01:07:12;;;;;;;5.23;3.00;;;;;;;;;;4934304;29;20710;-83
2021/08/09 01:09:43;;;;;;;12.93;4.17;;;;;;;;;;4934820;29;20206;-83
2021/08/09 01:12:14;;;;;;;9.53;3.30;;;;;;;;;;4935483;29;20226;-83
2021/08/09 01:14:54;;;;;;;8.57;3.47;;;;;;;;;;4935164;29;20310;-83
2021/08/09 01:17:23;;;;;;;13.00;3.50;;;;;;;;;;4938619;29;20213;-83
2021/08/09 01:20:01;;;;;;;6.63;3.20;;;;;;;;;;4946253;29;20209;-80
2021/08/09 01:22:36;;;;;;;11.60;3.53;;;;;;;;;;4953816;29;20222;-80
2021/08/09 01:25:06;;;;;;;10.93;3.80;;;;;;;;;;4944464;29;20237;-81
2021/08/09 01:27:36;;;;;;;7.47;3.20;;;;;;;;;;4936092;29;20208;-82
2021/08/09 01:30:05;;;;;;;7.87;3.23;;;;;;;;;;4931847;29;20625;-80
2021/08/09 01:32:33;;;;;;;8.60;3.10;;;;;;;;;;4932427;29;20614;-82
2021/08/09 01:35:02;;;;;;;7.33;3.33;;;;;;;;;;4936199;29;20584;-82
2021/08/09 01:37:30;;;;;;;10.73;3.17;;;;;;;;;;4933694;29;20211;-83
2021/08/09 01:39:57;;;;;;;6.53;3.10;;;;;;;;;;4938234;29;20213;-82
2021/08/09 01:42:24;;;;;;;6.30;3.03;;;;;;;;;;4940504;29;20317;-81
2021/08/09 01:44:53;;;;;;;9.27;3.43;;;;;;;;;;4945524;29;20198;-81
2021/08/09 01:47:20;;;;;;;7.30;3.33;;;;;;;;;;4941180;29;20211;-80
2021/08/09 01:49:48;;;;;;;4.93;3.03;;;;;;;;;;4941546;29;20199;-82
2021/08/09 01:52:16;;;;;;;9.70;3.47;;;;;;;;;;4940972;29;20227;-81
2021/08/09 01:54:43;;;;;;;8.63;3.90;;;;;;;;;;4940875;29;20229;-81
2021/08/09 01:57:10;;;;;;;7.40;3.47;;;;;;;;;;4939034;29;20203;-81
2021/08/09 01:59:37;;;;;;;14.60;3.10;;;;;;;;;;4943078;29;20226;-80
2021/08/09 02:02:06;;;;;;;6.73;3.20;;;;;;;;;;4940422;29;20326;-80
2021/08/09 02:04:33;;;;;;;7.93;3.47;;;;;;;;;;4943251;29;20207;-82
2021/08/09 02:07:00;;;;;;;10.80;3.23;;;;;;;;;;4945719;29;20213;-80
2021/08/09 02:09:27;;;;;;;13.87;3.00;;;;;;;;;;4939014;29;20215;-82
2021/08/09 02:11:56;;;;;;;8.27;2.97;;;;;;;;;;4944196;29;20233;-81
2021/08/09 02:14:25;;;;;;;7.37;3.43;;;;;;;;;;4939498;29;20235;-80
2021/08/09 02:17:01;;;;;;;5.37;3.00;;;;;;;;;;4939674;29;20214;-80
2021/08/09 02:19:35;;;;;;;6.23;3.30;;;;;;;;;;4941972;29;20289;-82
2021/08/09 02:22:03;;;;;;;5.63;2.93;;;;;;;;;;4944884;29;20231;-83
2021/08/09 02:24:32;;;;;;;6.30;2.87;;;;;;;;;;4945599;29;20329;-83
2021/08/09 02:27:02;;;;;;;8.03;2.77;;;;;;;;;;4943450;29;20274;-82
2021/08/09 02:29:31;;;;;;;7.10;2.57;;;;;;;;;;4943806;29;20714;-80
2021/08/09 02:31:58;;;;;;;5.93;2.47;;;;;;;;;;4940876;29;20380;-83
2021/08/09 02:34:27;;;;;;;8.63;2.70;;;;;;;;;;4944054;29;20662;-84
2021/08/09 02:36:56;;;;;;;5.90;2.30;;;;;;;;;;4944548;29;20207;-83
2021/08/09 02:39:23;;;;;;;5.97;2.73;;;;;;;;;;4945622;29;20781;-84
2021/08/09 02:41:50;;;;;;;11.13;2.40;;;;;;;;;;4941675;29;20322;-84
2021/08/09 02:44:18;;;;;;;6.70;2.53;;;;;;;;;;4943505;29;20294;-82
2021/08/09 02:46:45;;;;;;;7.53;2.33;;;;;;;;;;4954042;23;20272;-73
2021/08/09 02:49:19;;;;;;;4.73;2.30;;;;;;;;;;4927012;29;20214;-73
2021/08/09 02:51:46;;;;;;;6.17;2.57;;;;;;;;;;4910688;29;20208;-73
2021/08/09 02:54:16;;;;;;;10.07;2.63;;;;;;;;;;4909052;29;20249;-73
2021/08/09 02:56:43;;;;;;;5.00;2.47;;;;;;;;;;4911071;29;20315;-75
2021/08/09 02:59:10;;;;;;;7.23;2.57;;;;;;;;;;4910442;29;20679;-73
2021/08/09 03:01:37;;;;;;;13.30;2.53;;;;;;;;;;4910371;29;20271;-75
2021/08/09 03:04:05;;;;;;;6.40;2.57;;;;;;;;;;4907581;29;20225;-73
2021/08/09 03:06:33;;;;;;;6.33;2.43;;;;;;;;;;4910665;29;20208;-76
2021/08/09 03:09:00;;;;;;;6.00;2.70;;;;;;;;;;4909377;29;21448;-73
2021/08/09 03:11:29;;;;;;;6.57;2.73;;;;;;;;;;4910535;29;20567;-73
2021/08/09 03:13:56;;;;;;;4.23;2.57;;;;;;;;;;4911159;29;20227;-73
2021/08/09 03:16:23;;;;;;;4.70;2.40;;;;;;;;;;4909687;29;20263;-73
2021/08/09 03:18:50;;;;;;;5.57;2.67;;;;;;;;;;4909313;29;20696;-73
2021/08/09 03:21:18;;;;;;;4.80;2.83;;;;;;;;;;4907376;29;20224;-73
2021/08/09 03:23:45;;;;;;;6.13;2.50;;;;;;;;;;4910514;29;20212;-73
2021/08/09 03:26:12;;;;;;;4.97;2.43;;;;;;;;;;4917364;29;20204;-73
2021/08/09 03:28:41;;;;;;;7.90;2.57;;;;;;;;;;4911484;29;20598;-73
2021/08/09 03:31:08;;;;;;;7.00;2.87;;;;;;;;;;4946155;23;20310;-73
2021/08/09 03:33:35;;;;;;;6.40;2.50;;;;;;;;;;4935414;29;20265;-72
2021/08/09 03:36:02;;;;;;;6.23;2.33;;;;;;;;;;4925999;29;20222;-72
2021/08/09 03:38:29;;;;;;;5.50;2.43;;;;;;;;;;4920584;29;20251;-72
2021/08/09 03:40:56;;;;;;;6.30;2.83;;;;;;;;;;4919032;29;20230;-72
2021/08/09 03:43:24;;;;;;;12.27;2.67;;;;;;;;;;4915375;29;20613;-72
2021/08/09 03:45:52;;;;;;;7.90;2.50;;;;;;;;;;4913436;29;20365;-75
2021/08/09 03:48:25;;;;;;;6.73;2.70;;;;;;;;;;4907912;29;20211;-73
2021/08/09 03:51:01;;;;;;;4.03;2.50;;;;;;;;;;4906949;29;20227;-73
2021/08/09 03:53:29;;;;;;;5.43;2.80;;;;;;;;;;4905772;29;20352;-73
2021/08/09 03:55:56;;;;;;;4.90;2.83;;;;;;;;;;4911311;29;20209;-72
2021/08/09 03:58:23;;;;;;;11.77;2.83;;;;;;;;;;4916075;29;20214;-74
2021/08/09 04:00:50;;;;;;;6.33;2.83;;;;;;;;;;4915174;29;20223;-74
2021/08/09 04:03:19;;;;;;;7.27;2.77;;;;;;;;;;4903348;29;20824;-74
2021/08/09 04:06:05;;;;;;;13.53;3.40;;;;;;;;;;4910536;29;20495;-74
2021/08/09 04:08:32;;;;;;;7.63;2.80;;;;;;;;;;4907113;29;20212;-72
2021/08/09 04:10:59;;;;;;;10.67;3.03;;;;;;;;;;4907331;29;20606;-73
2021/08/09 04:13:26;;;;;;;5.90;2.77;;;;;;;;;;4902905;29;20637;-73
2021/08/09 04:15:53;;;;;;;5.53;2.70;;;;;;;;;;4910280;29;20259;-75
2021/08/09 04:18:22;;;;;;;6.63;2.50;;;;;;;;;;4908094;29;20291;-75
2021/08/09 04:20:49;;;;;;;4.90;2.53;;;;;;;;;;4911177;29;20315;-76
2021/08/09 04:23:16;;;;;;;12.10;2.90;;;;;;;;;;4907564;29;20204;-73
2021/08/09 04:25:43;;;;;;;7.10;2.93;;;;;;;;;;4913103;29;20250;-75
2021/08/09 04:28:11;;;;;;;5.23;2.70;;;;;;;;;;4908824;29;20318;-75
2021/08/09 04:30:38;;;;;;;6.93;2.47;;;;;;;;;;4908941;29;20323;-75
2021/08/09 04:33:05;;;;;;;7.50;2.30;;;;;;;;;;4913170;29;20212;-75
2021/08/09 04:35:33;;;;;;;5.60;2.87;;;;;;;;;;4914179;29;20251;-75
2021/08/09 04:38:01;;;;;;;4.67;2.50;;;;;;;;;;4905002;29;20299;-75
2021/08/09 04:40:30;;;;;;;4.90;2.50;;;;;;;;;;4913389;29;20227;-75
2021/08/09 04:42:57;;;;;;;6.20;2.70;;;;;;;;;;4907763;29;20737;-73
2021/08/09 04:45:25;;;;;;;5.67;2.77;;;;;;;;;;4907710;29;20766;-74
2021/08/09 04:47:52;;;;;;;7.87;2.30;;;;;;;;;;4904422;29;20204;-74
2021/08/09 04:50:22;;;;;;;5.03;2.83;;;;;;;;;;4902409;29;20243;-74
2021/08/09 04:52:51;;;;;;;9.17;2.37;;;;;;;;;;4910693;29;20288;-74
2021/08/09 04:55:18;;;;;;;4.90;2.23;;;;;;;;;;4904363;29;20200;-74
2021/08/09 04:57:45;;;;;;;5.43;2.40;;;;;;;;;;4907840;29;20311;-75
2021/08/09 05:00:14;;;;;;;3.77;2.27;;;;;;;;;;4911800;29;20792;-75
2021/08/09 05:02:41;;;;;;;4.87;2.33;;;;;;;;;;4915752;29;20214;-74
2021/08/09 05:05:08;;;;;;;4.63;2.33;;;;;;;;;;4924196;29;20295;-74
2021/08/09 05:07:36;;;;;;;8.47;2.47;;;;;;;;;;4918032;29;20298;-74
2021/08/09 05:10:06;;;;;;;6.00;2.50;;;;;;;;;;4914729;29;20654;-74
2021/08/09 05:12:33;;;;;;;7.73;2.40;;;;;;;;;;4905588;29;20298;-74
2021/08/09 05:15:01;;;;;;;4.47;2.40;;;;;;;;;;4913121;29;20207;-74
2021/08/09 05:17:28;;;;;;;5.60;2.33;;;;;;;;;;4917260;29;20443;-74
2021/08/09 05:19:55;;;;;;;8.57;2.17;;;;;;;;;;4913611;29;20225;-75
2021/08/09 05:22:22;;;;;;;4.70;2.03;;;;;;;;;;4906307;29;20250;-75
2021/08/09 05:24:50;;;;;;;4.80;2.13;;;;;;;;;;4906682;29;20267;-75
2021/08/09 05:27:18;;;;;;;4.47;1.97;;;;;;;;;;4907298;29;20213;-75
2021/08/09 05:32:21;;;;;;;4.43;2.50;;;;;;;;;;5181512;23;20227;-73
2021/08/09 05:34:48;;;;;;;5.73;2.40;;;;;;;;;;4936636;28;20210;-73
2021/08/09 05:37:15;;;;;;;7.83;2.53;;;;;;;;;;4934983;29;20216;-73
2021/08/09 05:39:43;;;;;;;5.60;2.10;;;;;;;;;;4926531;29;20756;-73
2021/08/09 05:42:10;;;;;;;8.13;2.60;;;;;;;;;;4930697;29;20297;-73
2021/08/09 05:44:39;;;;;;;6.70;2.50;;;;;;;;;;4933155;29;20233;-73
2021/08/09 05:47:06;;;;;;;9.03;2.37;;;;;;;;;;4930396;29;20219;-74
2021/08/09 05:49:33;;;;;;;6.10;2.30;;;;;;;;;;4930805;29;20217;-73
2021/08/09 05:52:00;;;;;;;5.57;2.30;;;;;;;;;;4931558;29;20297;-73
2021/08/09 05:54:27;;;;;;;7.40;2.40;;;;;;;;;;4932007;29;20202;-73
2021/08/09 05:56:54;;;;;;;5.57;2.13;;;;;;;;;;4929597;29;20294;-72
2021/08/09 05:59:22;;;;;;;4.33;2.00;;;;;;;;;;4928696;29;20205;-71
2021/08/09 06:01:50;;;;;;;6.03;2.07;;;;;;;;;;4931843;29;20649;-72
2021/08/09 06:04:17;;;;;;;5.70;1.90;;;;;;;;;;4924865;29;20254;-72
2021/08/09 06:06:44;;;;;;;5.97;2.20;;;;;;;;;;4927339;29;20306;-72
2021/08/09 06:11:47;;;;;;;12.70;2.60;;;;;;;;;;5056760;23;20237;-84
2021/08/09 09:10:40;;;;;;;3.60;0.90;;;;;;;;;;4930623;23;20335;-75
2021/08/09 09:13:08;;;;;;;3.40;0.80;;;;;;;;;;4925800;29;20294;-74
2021/08/09 09:15:53;;;;;;;5.53;1.17;;;;;;;;;;4929650;29;20236;-76
2021/08/09 09:18:21;;;;;;;3.40;1.10;;;;;;;;;;4930182;29;20299;-77
2021/08/09 09:20:48;;;;;;;3.90;1.10;;;;;;;;;;4927096;29;20506;-76
2021/08/09 09:23:16;;;;;;;3.40;1.30;;;;;;;;;;4923217;29;20204;-76
2021/08/09 09:25:44;;;;;;;3.50;1.03;;;;;;;;;;4931854;29;20226;-77
2021/08/09 09:28:29;;;;;;;5.80;0.97;;;;;;;;;;4930215;29;20289;-77
2021/08/09 09:31:02;;;;;;;4.10;1.10;;;;;;;;;;4925921;29;20230;-76
2021/08/09 09:33:30;;;;;;;4.00;1.10;;;;;;;;;;4922953;29;20584;-76
2021/08/09 09:35:57;;;;;;;2.23;1.10;;;;;;;;;;4930218;29;20218;-76
2021/08/09 09:38:26;;;;;;;2.80;1.10;;;;;;;;;;4923944;29;20784;-76
2021/08/09 09:41:05;;;;;;;3.03;1.00;;;;;;;;;;4928185;29;20309;-76
2021/08/09 09:43:40;;;;;;;2.73;1.10;;;;;;;;;;4925911;29;20203;-76
2021/08/09 09:46:07;;;;;;;6.10;0.97;;;;;;;;;;4930928;29;20213;-76
2021/08/09 09:48:35;;;;;;;3.40;0.93;;;;;;;;;;4931044;29;20305;-76
2021/08/09 09:51:10;;;;;;;10.50;1.30;;;;;;;;;;4929225;29;20266;-76
2021/08/09 09:53:37;;;;;;;4.50;1.20;;;;;;;;;;4933609;29;20319;-76
2021/08/09 09:56:06;;;;;;;3.17;1.30;;;;;;;;;;4925650;29;20226;-76
2021/08/09 09:58:34;;;;;;;2.77;1.00;;;;;;;;;;4926776;29;20215;-76
2021/08/09 10:01:01;;;;;;;3.97;1.20;;;;;;;;;;4931059;29;20235;-76
2021/08/09 10:03:28;;;;;;;2.93;1.20;;;;;;;;;;4928739;29;20297;-76
2021/08/09 10:05:56;;;;;;;2.53;0.90;;;;;;;;;;4923946;29;20295;-76
2021/08/09 10:08:23;;;;;;;2.17;0.70;;;;;;;;;;4925026;29;20215;-76
2021/08/09 10:10:52;;;;;;;3.37;1.03;;;;;;;;;;4930102;29;20235;-77
2021/08/09 10:13:21;;;;;;;2.67;1.03;;;;;;;;;;4925045;29;20290;-77
2021/08/09 10:15:54;;;;;;;3.30;0.93;;;;;;;;;;4926154;29;20762;-77
2021/08/09 10:18:24;;;;;;;5.23;1.13;;;;;;;;;;4931158;29;20264;-77
2021/08/09 10:20:51;;;;;;;5.10;0.83;;;;;;;;;;4928841;29;20246;-77
2021/08/09 10:23:35;;;;;;;6.03;0.90;;;;;;;;;;4933912;29;20210;-78
2021/08/09 10:26:03;;;;;;;3.97;1.00;;;;;;;;;;4926382;29;20200;-79
2021/08/09 10:28:45;;;;;;;3.87;0.90;;;;;;;;;;4922998;29;20408;-79
2021/08/09 10:31:23;;;;;;;2.77;1.00;;;;;;;;;;4925951;29;20231;-78
2021/08/09 10:33:50;;;;;;;3.73;0.93;;;;;;;;;;4927143;29;20239;-77
2021/08/09 10:36:20;;;;;;;2.97;1.10;;;;;;;;;;4929082;29;20307;-76
2021/08/09 10:38:49;;;;;;;4.10;1.00;;;;;;;;;;4928402;29;20416;-77
2021/08/09 10:41:27;;;;;;;2.27;1.00;;;;;;;;;;4930262;29;20609;-77
2021/08/09 10:44:13;;;;;;;2.33;1.00;;;;;;;;;;4927152;29;20498;-77
2021/08/09 10:46:43;;;;;;;2.43;0.90;;;;;;;;;;4933961;29;20203;-76
2021/08/09 10:49:10;;;;;;;3.70;1.10;;;;;;;;;;4932423;29;20310;-77
2021/08/09 10:51:56;;;;;;;6.27;1.20;;;;;;;;;;4927922;29;20231;-77
2021/08/09 10:54:27;;;;;;;2.60;1.00;;;;;;;;;;4927984;29;20243;-77
2021/08/09 10:56:55;;;;;;;5.17;1.43;;;;;;;;;;4928725;29;20242;-76
2021/08/09 10:59:41;;;;;;;3.40;1.10;;;;;;;;;;4927310;29;20217;-76
2021/08/09 11:02:18;;;;;;;3.57;1.30;;;;;;;;;;4928714;29;20286;-76
2021/08/09 11:04:45;;;;;;;4.33;1.00;;;;;;;;;;4927377;29;21785;-77
2021/08/09 11:07:16;;;;;;;5.80;1.33;;;;;;;;;;4930724;29;20741;-77
2021/08/09 11:09:47;;;;;;;5.97;1.47;;;;;;;;;;4928550;29;20239;-77
2021/08/09 11:12:15;;;;;;;4.30;1.30;;;;;;;;;;4928242;29;20206;-76
2021/08/09 11:15:02;;;;;;;6.27;1.20;;;;;;;;;;4925520;28;20220;-76
2021/08/09 11:17:32;;;;;;;5.07;1.10;;;;;;;;;;4929271;29;20206;-76
2021/08/09 11:20:10;;;;;;;7.80;1.30;;;;;;;;;;4930319;29;20262;-77
2021/08/09 11:22:38;;;;;;;3.03;1.10;;;;;;;;;;4937355;29;20203;-77
2021/08/09 11:25:05;;;;;;;4.63;1.20;;;;;;;;;;4932632;29;20242;-76
2021/08/09 11:27:32;;;;;;;5.33;1.33;;;;;;;;;;4931853;29;20246;-74
2021/08/09 11:30:00;;;;;;;3.07;1.03;;;;;;;;;;4927097;29;20317;-76
2021/08/09 11:32:38;;;;;;;4.23;1.10;;;;;;;;;;4931406;29;20203;-77
2021/08/09 11:35:06;;;;;;;3.47;1.13;;;;;;;;;;4928023;29;20681;-74
2021/08/09 11:37:33;;;;;;;4.17;1.10;;;;;;;;;;4929953;29;20720;-74
2021/08/09 11:40:00;;;;;;;3.43;1.20;;;;;;;;;;4929473;29;20837;-74
2021/08/09 11:42:42;;;;;;;4.07;1.17;;;;;;;;;;4922212;29;20293;-74
2021/08/09 11:45:27;;;;;;;3.40;1.10;;;;;;;;;;4928473;29;20207;-74
2021/08/09 11:47:56;;;;;;;4.83;1.17;;;;;;;;;;4926175;29;20212;-74
2021/08/09 11:50:23;;;;;;;4.17;1.07;;;;;;;;;;4923374;29;20742;-74
2021/08/09 11:52:51;;;;;;;2.97;1.03;;;;;;;;;;4927229;29;20640;-73
2021/08/09 11:55:21;;;;;;;5.20;1.30;;;;;;;;;;4927128;29;20311;-74
2021/08/09 11:57:48;;;;;;;5.97;1.30;;;;;;;;;;4927611;29;20666;-74
2021/08/09 12:00:16;;;;;;;6.60;1.07;;;;;;;;;;4928637;29;20804;-74
2021/08/09 12:03:02;;;;;;;8.40;1.40;;;;;;;;;;4927426;29;20688;-74
2021/08/09 12:05:30;;;;;;;4.33;0.90;;;;;;;;;;4925714;29;20235;-74
2021/08/09 12:08:04;;;;;;;4.57;1.10;;;;;;;;;;4923671;29;20209;-73
2021/08/09 12:10:31;;;;;;;6.17;1.20;;;;;;;;;;4925337;29;20366;-74
2021/08/09 12:12:59;;;;;;;3.87;1.07;;;;;;;;;;4928800;29;20215;-74
2021/08/09 12:15:26;;;;;;;4.37;1.30;;;;;;;;;;4927982;29;20318;-73
2021/08/09 12:18:03;;;;;;;4.97;1.07;;;;;;;;;;4929434;29;20213;-76
2021/08/09 12:20:31;;;;;;;3.60;1.20;;;;;;;;;;4923714;29;20313;-75
2021/08/09 12:22:59;;;;;;;3.47;1.07;;;;;;;;;;4920405;29;20231;-75
2021/08/09 12:25:35;;;;;;;1.63;0.90;;;;;;;;;;4922728;29;20298;-76
2021/08/09 12:28:03;;;;;;;6.47;1.37;;;;;;;;;;4921558;29;20425;-75
2021/08/09 12:30:30;;;;;;;8.83;1.10;;;;;;;;;;4925059;29;20563;-76
2021/08/09 12:32:59;;;;;;;3.10;1.03;;;;;;;;;;4926839;29;20226;-76
2021/08/09 12:35:34;;;;;;;3.17;1.13;;;;;;;;;;4925520;29;20235;-76
2021/08/09 12:38:01;;;;;;;2.10;0.90;;;;;;;;;;4924344;29;20239;-75
2021/08/09 12:40:38;;;;;;;5.80;1.20;;;;;;;;;;4926039;29;20314;-76
2021/08/09 12:43:06;;;;;;;4.10;1.13;;;;;;;;;;4921444;29;20302;-76
2021/08/09 12:45:34;;;;;;;4.97;1.30;;;;;;;;;;4926953;29;20204;-76
2021/08/09 12:48:01;;;;;;;3.07;1.00;;;;;;;;;;4926235;29;20211;-75
2021/08/09 12:50:28;;;;;;;2.80;1.20;;;;;;;;;;4923800;29;20715;-76
2021/08/09 12:52:56;;;;;;;3.90;1.27;;;;;;;;;;4927565;29;20219;-75
2021/08/09 12:55:24;;;;;;;3.00;1.03;;;;;;;;;;4928513;29;20295;-76
2021/08/09 12:57:52;;;;;;;5.37;1.00;;;;;;;;;;4924875;29;21038;-76
2021/08/09 13:00:20;;;;;;;3.70;1.20;;;;;;;;;;4927853;29;20222;-76
2021/08/09 13:02:47;;;;;;;3.27;0.80;;;;;;;;;;4928878;29;20223;-76
2021/08/09 13:05:15;;;;;;;3.20;1.10;;;;;;;;;;4923729;29;20298;-75
2021/08/09 13:07:42;;;;;;;3.90;0.93;;;;;;;;;;4928812;29;20298;-75
2021/08/09 13:10:11;;;;;;;1.43;0.80;;;;;;;;;;4922344;29;20246;-75
2021/08/09 13:12:38;;;;;;;1.73;0.80;;;;;;;;;;4926615;29;20211;-75
2021/08/09 13:15:06;;;;;;;6.53;1.13;;;;;;;;;;4924461;29;20255;-75
2021/08/09 13:17:34;;;;;;;5.83;1.10;;;;;;;;;;4928297;29;20263;-75
2021/08/09 13:20:01;;;;;;;4.23;1.17;;;;;;;;;;4921627;29;20589;-75
2021/08/09 13:22:30;;;;;;;3.67;1.10;;;;;;;;;;4924807;29;20203;-75
2021/08/09 13:24:57;;;;;;;2.77;1.03;;;;;;;;;;4925744;29;20207;-75
2021/08/09 13:27:26;;;;;;;4.13;1.20;;;;;;;;;;4929549;29;20287;-75
2021/08/09 13:29:53;;;;;;;5.10;1.30;;;;;;;;;;4922624;29;20223;-75
2021/08/09 13:32:21;;;;;;;4.33;1.10;;;;;;;;;;4926074;29;20747;-75
2021/08/09 13:34:48;;;;;;;2.90;1.10;;;;;;;;;;4925376;29;20494;-76
2021/08/09 13:37:15;;;;;;;4.93;0.80;;;;;;;;;;4929423;28;20227;-75
2021/08/09 13:39:45;;;;;;;4.70;1.10;;;;;;;;;;4937435;29;20408;-75
2021/08/09 13:42:12;;;;;;;3.87;0.87;;;;;;;;;;4932694;29;20211;-75
2021/08/09 13:44:41;;;;;;;4.30;0.97;;;;;;;;;;4928152;29;20215;-75
2021/08/09 13:47:08;;;;;;;5.50;1.00;;;;;;;;;;4932422;29;20259;-77
2021/08/09 13:49:37;;;;;;;5.57;1.23;;;;;;;;;;4926764;29;20314;-77
2021/08/09 13:52:05;;;;;;;6.30;1.20;;;;;;;;;;4928039;29;20218;-77
2021/08/09 13:54:32;;;;;;;4.27;0.93;;;;;;;;;;4931533;29;20697;-77
2021/08/09 13:56:59;;;;;;;2.67;0.70;;;;;;;;;;4932525;29;20729;-77
2021/08/09 13:59:26;;;;;;;3.60;0.90;;;;;;;;;;4932183;29;20671;-77
2021/08/09 14:01:55;;;;;;;7.17;1.10;;;;;;;;;;4933387;29;20239;-77
2021/08/09 14:04:22;;;;;;;4.37;1.10;;;;;;;;;;4929219;29;20295;-77
2021/08/09 14:06:49;;;;;;;2.67;0.70;;;;;;;;;;4925917;29;20218;-74
2021/08/09 14:09:16;;;;;;;2.83;0.97;;;;;;;;;;4925701;29;20717;-76
2021/08/09 14:11:43;;;;;;;2.10;0.80;;;;;;;;;;4926892;29;20313;-77
2021/08/09 14:14:11;;;;;;;2.33;0.83;;;;;;;;;;4925296;29;20729;-77
2021/08/09 14:16:38;;;;;;;2.60;1.00;;;;;;;;;;4927439;29;20227;-76
2021/08/09 14:19:06;;;;;;;2.37;0.80;;;;;;;;;;4925703;29;20307;-77
2021/08/09 14:21:33;;;;;;;3.60;1.00;;;;;;;;;;4925974;29;20228;-77
2021/08/09 14:24:01;;;;;;;2.63;0.97;;;;;;;;;;4928099;29;20235;-77
2021/08/09 14:26:29;;;;;;;2.13;0.80;;;;;;;;;;4929186;29;20288;-77
2021/08/09 14:28:56;;;;;;;2.27;0.83;;;;;;;;;;4925421;29;20615;-76
2021/08/09 14:31:24;;;;;;;4.67;1.07;;;;;;;;;;4925957;29;20667;-77
2021/08/09 14:33:51;;;;;;;3.13;0.80;;;;;;;;;;4928111;29;20686;-76
2021/08/09 14:36:20;;;;;;;3.83;0.93;;;;;;;;;;4926346;29;20773;-76
2021/08/09 14:38:47;;;;;;;1.77;0.63;;;;;;;;;;4927016;29;20239;-77
2021/08/09 14:41:14;;;;;;;1.73;0.67;;;;;;;;;;4930680;29;20241;-77
2021/08/09 14:43:41;;;;;;;4.50;1.07;;;;;;;;;;4927170;29;20758;-76
2021/08/09 14:46:09;;;;;;;2.80;0.90;;;;;;;;;;4928345;29;20209;-76
2021/08/09 14:48:37;;;;;;;2.13;0.80;;;;;;;;;;4930046;29;20216;-76
2021/08/09 14:51:04;;;;;;;4.53;0.97;;;;;;;;;;4930342;29;20231;-77
2021/08/09 14:53:35;;;;;;;2.30;0.90;;;;;;;;;;4928800;29;20709;-74
2021/08/09 14:56:03;;;;;;;1.73;0.90;;;;;;;;;;4927845;29;20214;-77
2021/08/09 14:58:30;;;;;;;2.03;1.00;;;;;;;;;;4928043;29;20297;-76
2021/08/09 15:00:57;;;;;;;4.73;1.10;;;;;;;;;;4927202;29;20542;-77
2021/08/09 15:03:24;;;;;;;3.73;1.07;;;;;;;;;;4930465;29;20690;-77
2021/08/09 15:05:52;;;;;;;3.33;1.03;;;;;;;;;;4922037;29;20577;-76
2021/08/09 15:08:19;;;;;;;3.00;0.80;;;;;;;;;;4923172;29;20251;-77
2021/08/09 15:10:47;;;;;;;2.50;1.03;;;;;;;;;;4939445;23;20241;-73
2021/08/09 15:13:14;;;;;;;1.57;0.80;;;;;;;;;;4922683;29;20203;-73
2021/08/09 15:15:42;;;;;;;3.30;1.07;;;;;;;;;;4925858;29;20230;-73
2021/08/09 15:18:09;;;;;;;4.07;1.00;;;;;;;;;;4926710;29;20237;-73
2021/08/09 15:20:36;;;;;;;1.77;0.63;;;;;;;;;;4915620;29;20588;-73
2021/08/09 15:23:03;;;;;;;3.50;0.83;;;;;;;;;;4895353;29;20212;-73
2021/08/09 15:25:30;;;;;;;4.40;0.93;;;;;;;;;;4898818;29;20216;-73
2021/08/09 15:27:59;;;;;;;3.13;0.90;;;;;;;;;;4922843;23;20487;-73
2021/08/09 15:30:28;;;;;;;1.50;0.80;;;;;;;;;;4904007;29;20341;-72
2021/08/09 15:32:56;;;;;;;3.83;1.10;;;;;;;;;;4904698;29;20218;-72
2021/08/09 15:35:23;;;;;;;1.37;0.80;;;;;;;;;;4900015;29;20244;-73
2021/08/09 15:37:50;;;;;;;1.50;0.80;;;;;;;;;;4913066;29;20235;-73
2021/08/09 15:40:17;;;;;;;3.20;0.87;;;;;;;;;;4901450;29;20220;-73
2021/08/09 15:42:45;;;;;;;2.73;1.10;;;;;;;;;;4908755;29;20689;-72
2021/08/09 15:45:14;;;;;;;2.30;0.93;;;;;;;;;;4905522;29;20697;-74
2021/08/09 15:47:42;;;;;;;3.47;0.73;;;;;;;;;;4907784;29;20229;-74
2021/08/09 15:50:10;;;;;;;2.90;0.90;;;;;;;;;;4906136;29;20231;-73
2021/08/09 15:52:37;;;;;;;2.77;0.73;;;;;;;;;;4906469;29;20216;-73
2021/08/09 15:55:16;;;;;;;4.97;1.00;;;;;;;;;;4902480;29;20550;-73
2021/08/09 15:57:43;;;;;;;3.17;0.90;;;;;;;;;;4904732;29;20236;-72
2021/08/09 16:00:11;;;;;;;2.17;1.03;;;;;;;;;;4908465;29;20295;-73
2021/08/09 16:02:39;;;;;;;3.43;0.90;;;;;;;;;;4910565;29;20814;-73
2021/08/09 16:05:07;;;;;;;3.70;1.10;;;;;;;;;;4902588;29;21655;-73
2021/08/09 16:07:34;;;;;;;2.43;1.00;;;;;;;;;;4903329;29;20295;-73
2021/08/09 16:10:02;;;;;;;5.67;2.00;;;;;;;;;;4899466;29;20581;-73
2021/08/09 16:12:29;;;;;;;5.13;1.40;;;;;;;;;;4905649;29;20200;-73
2021/08/09 16:14:56;;;;;;;12.03;4.13;;;;;;;;;;4900952;29;20303;-73
2021/08/09 16:17:24;;;;;;;4.47;1.70;;;;;;;;;;4902492;29;20291;-73
2021/08/09 16:19:52;;;;;;;2.90;1.30;;;;;;;;;;4907215;29;20311;-73
2021/08/09 16:22:20;;;;;;;2.13;1.00;;;;;;;;;;4906549;29;20211;-73
2021/08/09 16:24:47;;;;;;;3.93;1.30;;;;;;;;;;4907668;29;20572;-73
2021/08/09 16:27:16;;;;;;;2.73;1.10;;;;;;;;;;4907813;29;20275;-73
2021/08/09 16:29:44;;;;;;;4.97;1.30;;;;;;;;;;4977280;23;20316;-74
2021/08/09 16:32:11;;;;;;;2.23;1.17;;;;;;;;;;4907285;29;20301;-74
2021/08/09 16:34:39;;;;;;;3.87;1.20;;;;;;;;;;4908959;29;20215;-74
2021/08/09 16:37:08;;;;;;;4.03;1.50;;;;;;;;;;4910720;29;20277;-74
2021/08/09 16:42:16;;;;;;;2.87;1.03;;;;;;;;;;4899506;29;20216;-73
2021/08/09 16:44:44;;;;;;;3.60;1.30;;;;;;;;;;4909543;29;20199;-74
2021/08/09 16:47:18;;;;;;;2.23;1.10;;;;;;;;;;4911303;29;20202;-74
2021/08/09 16:49:46;;;;;;;5.00;1.40;;;;;;;;;;4903936;29;20235;-74
2021/08/09 16:52:14;;;;;;;3.10;1.27;;;;;;;;;;4905664;29;20210;-74
2021/08/09 16:54:42;;;;;;;4.53;1.60;;;;;;;;;;4905768;29;20203;-74
2021/08/09 16:57:11;;;;;;;2.57;1.20;;;;;;;;;;4903444;29;20227;-75
2021/08/09 16:59:40;;;;;;;3.57;1.47;;;;;;;;;;4904536;29;20746;-74
2021/08/09 17:02:07;;;;;;;5.47;1.47;;;;;;;;;;4905828;29;20645;-74
2021/08/09 17:04:36;;;;;;;4.10;1.30;;;;;;;;;;4906247;29;20215;-75
2021/08/09 17:07:06;;;;;;;9.57;1.50;;;;;;;;;;4908013;29;20700;-73
2021/08/09 17:09:34;;;;;;;4.50;1.27;;;;;;;;;;4905770;29;20895;-73
2021/08/09 17:12:01;;;;;;;3.67;1.30;;;;;;;;;;4911866;29;20370;-75
2021/08/09 17:14:28;;;;;;;5.70;1.30;;;;;;;;;;4908938;29;20250;-73
2021/08/09 17:16:56;;;;;;;3.40;1.30;;;;;;;;;;4907120;29;20401;-74
2021/08/09 17:22:22;;;;;;;2.00;1.20;;;;;;;;;;4887343;29;20215;-73
2021/08/09 17:24:51;;;;;;;3.23;1.17;;;;;;;;;;4904587;29;20633;-73
2021/08/09 17:27:21;;;;;;;4.83;1.27;;;;;;;;;;4903214;29;20299;-73
2021/08/09 17:29:48;;;;;;;4.57;1.30;;;;;;;;;;4912604;29;20235;-74
2021/08/09 17:32:15;;;;;;;3.83;1.07;;;;;;;;;;4909410;29;20360;-74
2021/08/09 17:34:42;;;;;;;2.37;0.93;;;;;;;;;;4902832;29;20294;-74
2021/08/09 17:37:11;;;;;;;2.83;1.30;;;;;;;;;;4907425;29;20239;-74
2021/08/09 17:39:38;;;;;;;4.77;1.20;;;;;;;;;;4909472;29;20204;-74
2021/08/09 17:42:07;;;;;;;2.23;1.30;;;;;;;;;;4904990;29;20578;-74
2021/08/09 17:44:34;;;;;;;1.87;0.90;;;;;;;;;;4906932;29;20298;-74
2021/08/09 17:47:02;;;;;;;4.33;1.33;;;;;;;;;;4910971;29;20345;-74
2021/08/09 17:49:30;;;;;;;1.90;1.20;;;;;;;;;;4903283;29;20601;-72
2021/08/09 17:51:57;;;;;;;5.33;1.20;;;;;;;;;;4903362;29;20231;-73
2021/08/09 17:54:28;;;;;;;6.47;1.50;;;;;;;;;;4900293;29;20303;-74
2021/08/09 17:56:55;;;;;;;6.67;1.10;;;;;;;;;;4906365;29;20223;-73
2021/08/09 17:59:24;;;;;;;2.87;1.10;;;;;;;;;;4904226;29;20212;-73